Sidney, Nebraska
Current Conditions -  °F | °C
As of 5:53 AM on Tuesday 21 Oct 2014 (Local Time) from KSNY Reporting Station
Clear Clear  
Wind Chill: 40°   Ceiling: Unl
Heat Index: 44°   Visibility: 10mi
Dew Point: 41°   Wind: 8mph
Humidity: 89%   Direction: 170°S
Pressure: 30"   Gusts: NA
Location:  41.14°N, 102.97°W
Report Text: KSNY 211153Z AUTO 17007KT 10SM CLR 07/05 A3000 RMK AO2 SLP137 T00670050 10133 20067 56007
Loading
Personal Weather Stations






























Interactive Weather Map
Tropical Storm Tracking
New forecast layout! Learn more

10-Day Weather Forecast

Advertisements
Track Severe Weather on mobile